Hai Yang Shi You 708 — BFDL — position and weather

sailwx.info

Track history (hours):
 
Tides and Currents Weather Stations Pressure Air Temp Water Temp Dewpoint Dewpoint Depression Visibility Wind Speed Wind Dir Waves Ship Positions

Hai Yang Shi You 708

Last reported at 2016-Sep-27 00:11 UTC. Time now 2016-Sep-27 10:31 UTC.
Position N 22°28' E 113°52'.

Length 105 m; draft 6.5 m.

Type: Other ship. MMSI: 413303010.

Date/timePositionNaut miles runAvg speedWind from/ knotsBaromVisibWave heightAir tempDewpointWater temp
2016-Sep-27 00:11N 22°28' E 113°52'0 0.0
2016-Sep-26 13:17N 22°28' E 113°52'0 0.0
2016-Sep-26 11:11N 22°28' E 113°52'0 0.0
2016-Sep-26 08:05N 22°28' E 113°52'0 0.0
2016-Sep-25 11:29N 22°28' E 113°52'0 0.0
2016-Sep-25 09:05N 22°28' E 113°52'2 1.1
2016-Sep-25 07:33N 22°27' E 113°53'1 0.4
2016-Sep-25 04:23N 22°28' E 113°54'0 0.0
2016-Sep-25 00:23N 22°28' E 113°54'0 0.0
2016-Sep-24 22:29N 22°28' E 113°54'0 0.0
2016-Sep-24 19:29N 22°28' E 113°54'0 0.0
2016-Sep-24 18:17N 22°28' E 113°54'0 0.0
2016-Sep-24 16:29N 22°28' E 113°54'0 0.0
2016-Sep-24 14:29N 22°28' E 113°54'0 0.0
2016-Sep-24 12:29N 22°28' E 113°54'0 0.0
2016-Sep-24 10:29N 22°28' E 113°54'0 0.0
2016-Sep-24 09:29N 22°28' E 113°54'0 0.0
2016-Sep-24 03:29N 22°28' E 113°54'0 0.0
2016-Sep-24 02:29N 22°28' E 113°54'0 0.0
2016-Sep-24 01:23N 22°28' E 113°54'0 0.0
2016-Sep-24 00:29N 22°28' E 113°54'0 0.0
2016-Sep-23 19:29N 22°28' E 113°54'0 0.0
2016-Sep-23 17:17N 22°28' E 113°54'0 0.0
2016-Sep-23 16:23N 22°28' E 113°54'0 0.0
2016-Sep-23 13:17N 22°28' E 113°54'0 0.0
2016-Sep-23 09:29N 22°28' E 113°54'0 0.0
2016-Sep-23 06:29N 22°28' E 113°54'0 0.0
2016-Sep-23 04:29N 22°28' E 113°54'0 0.0
2016-Sep-23 03:29N 22°28' E 113°54'0 0.0
2016-Sep-23 02:23N 22°28' E 113°54'0 0.0
2016-Sep-23 01:23N 22°28' E 113°54'0 0.0
2016-Sep-23 00:29N 22°28' E 113°54'0 0.0
2016-Sep-22 23:29N 22°28' E 113°54'0 0.0
2016-Sep-22 20:23N 22°28' E 113°54'0 0.0
2016-Sep-22 12:29N 22°28' E 113°54'0 0.0
2016-Sep-22 04:29N 22°28' E 113°54'0 0.0
2016-Sep-22 03:29N 22°28' E 113°54'0 0.0
2016-Sep-22 00:29N 22°28' E 113°54'0 0.0
2016-Sep-21 23:29N 22°28' E 113°54'0 0.0
2016-Sep-21 22:23N 22°28' E 113°54'0 0.0
2016-Sep-21 19:29N 22°28' E 113°54'0 0.0
2016-Sep-21 09:17N 22°28' E 113°54'0 0.0
2016-Sep-21 08:29N 22°28' E 113°54'0 0.0
2016-Sep-21 03:29N 22°28' E 113°54'0 0.0
2016-Sep-21 02:29N 22°28' E 113°54'2 0.1
2016-Sep-20 08:33N 22°28' E 113°52'1 0.1
2016-Sep-20 02:17N 22°28' E 113°52'1 0.3
2016-Sep-19 23:11N 22°27' E 113°52'2 0.5
2016-Sep-19 19:30N 22°28' E 113°54'0 0.0
2016-Sep-19 18:18N 22°28' E 113°54'0 0.0
2016-Sep-19 07:30N 22°28' E 113°54'0 0.0
2016-Sep-19 06:24N 22°28' E 113°54'0 0.0
2016-Sep-19 03:12N 22°28' E 113°54'0 0.0
2016-Sep-19 02:30N 22°28' E 113°54'0 0.0
2016-Sep-19 00:18N 22°28' E 113°54'0 0.0
2016-Sep-18 19:30N 22°28' E 113°54'0 0.0
2016-Sep-18 15:30N 22°28' E 113°54'0 0.1
2016-Sep-18 14:24N 22°28' E 113°54'0 0.0
2016-Sep-18 10:30N 22°28' E 113°54'0 0.0
2016-Sep-18 09:30N 22°28' E 113°54'0 0.0
2016-Sep-18 02:24N 22°28' E 113°54'0 0.0
2016-Sep-18 01:29N 22°28' E 113°54'0 0.0
2016-Sep-18 00:30N 22°28' E 113°54'0 0.0
2016-Sep-17 22:30N 22°28' E 113°54'0 0.0
2016-Sep-17 21:30N 22°28' E 113°54'0 0.0
2016-Sep-17 20:30N 22°28' E 113°54'0 0.0
2016-Sep-17 19:12N 22°28' E 113°54'0 0.0
2016-Sep-17 13:33N 22°28' E 113°54'20 6.5
2016-Sep-17 10:33N 22°09' E 113°48'1 1.1
2016-Sep-17 09:31N 22°09' E 113°48'0 0.0
2016-Sep-17 08:31N 22°09' E 113°48'0 0.0
2016-Sep-17 07:31N 22°09' E 113°48'0 0.0
2016-Sep-17 05:31N 22°09' E 113°48'  
Track history (hours):
 
Tides and Currents Weather Stations Pressure Air Temp Water Temp Dewpoint Dewpoint Depression Visibility Wind Speed Wind Dir Waves Ship Positions

Hai Yang Shi You 708

Last reported at 2016-Sep-27 00:11 UTC. Time now 2016-Sep-27 10:31 UTC.
Position N 22°28' E 113°52'.

Length 105 m; draft 6.5 m.

Type: Other ship. MMSI: 413303010.

Date/timePositionNaut miles runAvg speedWind from/ knotsBaromVisibWave heightAir tempDewpointWater temp
2016-Sep-27 00:11N 22°28' E 113°52'0 0.0
2016-Sep-26 13:17N 22°28' E 113°52'0 0.0
2016-Sep-26 11:11N 22°28' E 113°52'0 0.0
2016-Sep-26 08:05N 22°28' E 113°52'0 0.0
2016-Sep-25 11:29N 22°28' E 113°52'0 0.0
2016-Sep-25 09:05N 22°28' E 113°52'2 1.1
2016-Sep-25 07:33N 22°27' E 113°53'1 0.4
2016-Sep-25 04:23N 22°28' E 113°54'0 0.0
2016-Sep-25 00:23N 22°28' E 113°54'0 0.0
2016-Sep-24 22:29N 22°28' E 113°54'0 0.0
2016-Sep-24 19:29N 22°28' E 113°54'0 0.0
2016-Sep-24 18:17N 22°28' E 113°54'0 0.0
2016-Sep-24 16:29N 22°28' E 113°54'0 0.0
2016-Sep-24 14:29N 22°28' E 113°54'0 0.0
2016-Sep-24 12:29N 22°28' E 113°54'0 0.0
2016-Sep-24 10:29N 22°28' E 113°54'0 0.0
2016-Sep-24 09:29N 22°28' E 113°54'0 0.0
2016-Sep-24 03:29N 22°28' E 113°54'0 0.0
2016-Sep-24 02:29N 22°28' E 113°54'0 0.0
2016-Sep-24 01:23N 22°28' E 113°54'0 0.0
2016-Sep-24 00:29N 22°28' E 113°54'0 0.0
2016-Sep-23 19:29N 22°28' E 113°54'0 0.0
2016-Sep-23 17:17N 22°28' E 113°54'0 0.0
2016-Sep-23 16:23N 22°28' E 113°54'0 0.0
2016-Sep-23 13:17N 22°28' E 113°54'0 0.0
2016-Sep-23 09:29N 22°28' E 113°54'0 0.0
2016-Sep-23 06:29N 22°28' E 113°54'0 0.0
2016-Sep-23 04:29N 22°28' E 113°54'0 0.0
2016-Sep-23 03:29N 22°28' E 113°54'0 0.0
2016-Sep-23 02:23N 22°28' E 113°54'0 0.0
2016-Sep-23 01:23N 22°28' E 113°54'0 0.0
2016-Sep-23 00:29N 22°28' E 113°54'0 0.0
2016-Sep-22 23:29N 22°28' E 113°54'0 0.0
2016-Sep-22 20:23N 22°28' E 113°54'0 0.0
2016-Sep-22 12:29N 22°28' E 113°54'0 0.0
2016-Sep-22 04:29N 22°28' E 113°54'0 0.0
2016-Sep-22 03:29N 22°28' E 113°54'0 0.0
2016-Sep-22 00:29N 22°28' E 113°54'0 0.0
2016-Sep-21 23:29N 22°28' E 113°54'0 0.0
2016-Sep-21 22:23N 22°28' E 113°54'0 0.0
2016-Sep-21 19:29N 22°28' E 113°54'0 0.0
2016-Sep-21 09:17N 22°28' E 113°54'0 0.0
2016-Sep-21 08:29N 22°28' E 113°54'0 0.0
2016-Sep-21 03:29N 22°28' E 113°54'0 0.0
2016-Sep-21 02:29N 22°28' E 113°54'2 0.1
2016-Sep-20 08:33N 22°28' E 113°52'1 0.1
2016-Sep-20 02:17N 22°28' E 113°52'1 0.3
2016-Sep-19 23:11N 22°27' E 113°52'2 0.5
2016-Sep-19 19:30N 22°28' E 113°54'0 0.0
2016-Sep-19 18:18N 22°28' E 113°54'0 0.0
2016-Sep-19 07:30N 22°28' E 113°54'0 0.0
2016-Sep-19 06:24N 22°28' E 113°54'0 0.0
2016-Sep-19 03:12N 22°28' E 113°54'0 0.0
2016-Sep-19 02:30N 22°28' E 113°54'0 0.0
2016-Sep-19 00:18N 22°28' E 113°54'0 0.0
2016-Sep-18 19:30N 22°28' E 113°54'0 0.0
2016-Sep-18 15:30N 22°28' E 113°54'0 0.1
2016-Sep-18 14:24N 22°28' E 113°54'0 0.0
2016-Sep-18 10:30N 22°28' E 113°54'0 0.0
2016-Sep-18 09:30N 22°28' E 113°54'0 0.0
2016-Sep-18 02:24N 22°28' E 113°54'0 0.0
2016-Sep-18 01:29N 22°28' E 113°54'0 0.0
2016-Sep-18 00:30N 22°28' E 113°54'0 0.0
2016-Sep-17 22:30N 22°28' E 113°54'0 0.0
2016-Sep-17 21:30N 22°28' E 113°54'0 0.0
2016-Sep-17 20:30N 22°28' E 113°54'0 0.0
2016-Sep-17 19:12N 22°28' E 113°54'0 0.0
2016-Sep-17 13:33N 22°28' E 113°54'20 6.5
2016-Sep-17 10:33N 22°09' E 113°48'1 1.1
2016-Sep-17 09:31N 22°09' E 113°48'0 0.0
2016-Sep-17 08:31N 22°09' E 113°48'0 0.0
2016-Sep-17 07:31N 22°09' E 113°48'0 0.0
2016-Sep-17 05:31N 22°09' E 113°48'  

Dump ship's entire track history